createdAt,value
2022-12-28T00:01:09.133Z,-0.02
2022-12-28T00:04:14.340Z,-0.06
2022-12-28T00:07:17.475Z,-0.05
2022-12-28T00:11:07.663Z,0.09
2022-12-28T00:13:44.408Z,0.10
2022-12-28T00:16:47.256Z,-0.09
2022-12-28T00:19:50.638Z,-0.08
2022-12-28T00:22:53.225Z,-0.06
2022-12-28T00:26:05.008Z,-0.10
2022-12-28T00:29:07.875Z,-0.07
2022-12-28T00:32:10.593Z,-0.03
2022-12-28T00:35:13.204Z,-0.02
2022-12-28T00:38:16.102Z,-0.05
2022-12-28T00:41:20.381Z,-0.19
2022-12-28T00:44:23.027Z,-0.38
2022-12-28T00:47:25.688Z,-0.39
2022-12-28T00:50:28.450Z,-0.45
2022-12-28T00:53:31.321Z,-0.41
2022-12-28T00:56:36.631Z,-0.42
2022-12-28T00:59:39.295Z,-0.59
2022-12-28T01:02:42.039Z,-0.59
2022-12-28T01:05:44.807Z,-0.52
2022-12-28T01:08:47.637Z,-0.59
2022-12-28T01:11:51.651Z,-0.56
2022-12-28T01:14:54.397Z,-0.54
2022-12-28T01:17:57.068Z,-0.54
2022-12-28T01:20:59.738Z,-0.62
2022-12-28T01:24:04.259Z,-0.69
2022-12-28T01:27:09.267Z,-0.76
2022-12-28T01:30:13.871Z,-0.77
2022-12-28T01:33:16.490Z,-0.73
2022-12-28T01:36:21.393Z,-0.71
2022-12-28T01:39:24.057Z,-0.76
2022-12-28T01:42:28.071Z,-0.79
2022-12-28T01:45:30.931Z,-0.79
2022-12-28T01:48:36.740Z,-0.75
2022-12-28T01:52:03.647Z,-0.74
2022-12-28T01:55:11.634Z,-0.83
2022-12-28T01:58:21.234Z,-0.82
2022-12-28T02:01:24.141Z,-0.76
2022-12-28T02:04:27.305Z,-0.64
2022-12-28T02:07:38.328Z,-0.61
2022-12-28T02:10:45.825Z,-0.63
2022-12-28T02:13:53.743Z,-0.60
2022-12-28T02:16:56.663Z,-0.54
2022-12-28T02:19:59.357Z,-0.51
2022-12-28T02:23:23.186Z,-0.55
2022-12-28T02:26:38.623Z,-0.58
2022-12-28T02:29:55.745Z,-0.63
2022-12-28T02:33:04.795Z,-0.66
2022-12-28T02:36:18.704Z,-0.64
2022-12-28T02:39:28.631Z,-0.83
2022-12-28T02:42:31.943Z,-0.90
2022-12-28T02:45:58.298Z,-0.84
2022-12-28T02:49:19.578Z,-0.90
2022-12-28T02:52:38.151Z,-0.90
2022-12-28T02:56:07.621Z,-0.79
2022-12-28T02:59:48.911Z,-0.75
2022-12-28T03:03:03.843Z,-0.69
2022-12-28T03:06:54.923Z,-0.67
2022-12-28T03:10:11.062Z,-0.75
2022-12-28T03:13:38.847Z,-0.62
2022-12-28T03:17:04.201Z,-0.64
2022-12-28T03:20:31.154Z,-0.55
2022-12-28T03:23:55.933Z,-0.60
2022-12-28T03:27:20.338Z,-0.41
2022-12-28T03:30:49.410Z,-0.41
2022-12-28T03:33:53.750Z,-0.45
2022-12-28T03:37:04.944Z,-0.56
2022-12-28T03:40:18.045Z,-0.64
2022-12-28T03:43:41.403Z,-0.78
2022-12-28T03:46:52.360Z,-0.91
2022-12-28T03:49:58.498Z,-0.90
2022-12-28T03:53:03.704Z,-0.83
2022-12-28T03:56:09.160Z,-0.74
2022-12-28T03:59:12.913Z,-0.78
2022-12-28T04:02:19.029Z,-0.74
2022-12-28T04:05:23.126Z,-0.77
2022-12-28T04:08:28.251Z,-0.80
2022-12-28T04:11:31.260Z,-0.84
2022-12-28T04:14:34.923Z,-0.91
2022-12-28T04:17:37.795Z,-1.06
2022-12-28T04:20:40.796Z,-1.15
2022-12-28T04:23:44.887Z,-1.16
2022-12-28T04:26:56.823Z,-1.12
2022-12-28T04:29:59.625Z,-1.18
2022-12-28T04:33:02.279Z,-1.16
2022-12-28T04:36:06.827Z,-1.12
2022-12-28T04:39:11.201Z,-1.21
2022-12-28T04:42:13.840Z,-1.23
2022-12-28T04:45:21.776Z,-1.23
2022-12-28T04:48:25.672Z,-1.26
2022-12-28T04:51:29.876Z,-1.21
2022-12-28T04:54:34.051Z,-1.20
2022-12-28T04:57:36.721Z,-1.19
2022-12-28T05:00:39.504Z,-1.21
2022-12-28T05:03:48.169Z,-1.21
2022-12-28T05:06:55.275Z,-1.24
2022-12-28T05:09:59.407Z,-1.26
2022-12-28T05:13:02.050Z,-1.24
2022-12-28T05:16:06.908Z,-1.29
2022-12-28T05:19:09.732Z,-1.32
2022-12-28T05:22:12.914Z,-1.40
2022-12-28T05:25:17.425Z,-1.38
2022-12-28T05:28:19.982Z,-1.39
2022-12-28T05:31:25.890Z,-1.43
2022-12-28T05:34:28.701Z,-1.40
2022-12-28T05:37:31.332Z,-1.42
2022-12-28T05:40:35.371Z,-1.34
2022-12-28T05:43:38.239Z,-1.33
2022-12-28T05:46:40.870Z,-1.44
2022-12-28T05:49:43.712Z,-1.56
2022-12-28T05:52:46.413Z,-1.59
2022-12-28T05:55:50.399Z,-1.51
2022-12-28T05:58:55.400Z,-1.47
2022-12-28T06:01:58.648Z,-1.46
2022-12-28T06:05:01.582Z,-1.31
2022-12-28T06:08:04.787Z,-1.39
2022-12-28T06:11:10.589Z,-1.39
2022-12-28T06:14:13.676Z,-1.38
2022-12-28T06:17:16.369Z,-1.21
2022-12-28T06:20:19.222Z,-1.40
2022-12-28T06:23:24.922Z,-1.48
2022-12-28T06:26:32.200Z,-1.45
2022-12-28T06:29:34.855Z,-1.47
2022-12-28T06:32:37.559Z,-1.48
2022-12-28T06:35:41.166Z,-1.58
2022-12-28T06:38:44.514Z,-1.51
2022-12-28T06:41:48.688Z,-1.41
2022-12-28T06:44:51.570Z,-1.23
2022-12-28T06:47:54.257Z,-1.33
2022-12-28T06:50:57.736Z,-1.33
2022-12-28T06:54:01.920Z,-1.27
2022-12-28T06:57:06.029Z,-1.16
2022-12-28T07:00:10.434Z,-1.02
2022-12-28T07:03:13.315Z,-0.80
2022-12-28T07:06:17.932Z,-0.57
2022-12-28T07:09:20.756Z,-0.31
2022-12-28T07:12:24.810Z,-0.21
2022-12-28T07:15:27.667Z,-0.16
2022-12-28T07:18:30.474Z,-0.13
2022-12-28T07:21:34.958Z,0.17
2022-12-28T07:24:39.331Z,0.66
2022-12-28T07:27:43.309Z,1.36
2022-12-28T07:30:46.298Z,2.08
2022-12-28T07:33:50.694Z,2.93
2022-12-28T07:36:53.370Z,3.46
2022-12-28T07:39:56.135Z,3.52
2022-12-28T07:43:01.051Z,4.17
2022-12-28T07:46:06.056Z,4.23
2022-12-28T07:49:08.781Z,4.47
2022-12-28T07:52:11.420Z,4.89
2022-12-28T07:55:14.210Z,5.29
2022-12-28T07:58:18.180Z,5.73
2022-12-28T08:01:39.770Z,6.40
2022-12-28T08:04:46.185Z,6.22
2022-12-28T08:07:52.411Z,6.88
2022-12-28T08:10:55.082Z,7.12
2022-12-28T08:14:00.876Z,7.75
2022-12-28T08:17:03.715Z,7.98
2022-12-28T08:20:07.086Z,8.45
2022-12-28T08:23:10.906Z,8.77
2022-12-28T08:26:15.993Z,8.71
2022-12-28T08:29:21.684Z,8.30
2022-12-28T08:32:24.678Z,8.98
2022-12-28T08:35:27.347Z,9.13
2022-12-28T08:38:30.247Z,9.43
2022-12-28T08:41:33.028Z,9.28
2022-12-28T08:44:37.250Z,9.53
2022-12-28T08:47:39.995Z,9.71
2022-12-28T08:50:42.657Z,9.81
2022-12-28T08:53:47.134Z,9.90
2022-12-28T08:56:53.439Z,10.27
2022-12-28T08:59:57.601Z,10.20
2022-12-28T09:03:00.775Z,10.14
2022-12-28T09:06:05.257Z,9.34
2022-12-28T09:09:11.700Z,8.58
2022-12-28T09:12:14.473Z,7.79
2022-12-28T09:15:18.758Z,7.19
2022-12-28T09:18:21.449Z,7.07
2022-12-28T09:21:25.961Z,7.05
2022-12-28T09:24:28.587Z,6.94
2022-12-28T09:27:31.652Z,6.75
2022-12-28T09:30:35.770Z,6.91
2022-12-28T09:34:34.470Z,6.84
2022-12-28T09:37:20.083Z,7.24
2022-12-28T09:40:22.935Z,7.53
2022-12-28T09:43:26.926Z,7.63
2022-12-28T09:46:34.817Z,8.46
2022-12-28T09:49:42.821Z,8.96
2022-12-28T09:52:57.305Z,9.36
2022-12-28T09:56:03.427Z,9.85
2022-12-28T09:59:07.473Z,10.29
2022-12-28T10:02:27.608Z,10.47
2022-12-28T10:05:31.379Z,10.34
2022-12-28T10:08:44.386Z,9.98
2022-12-28T10:11:47.263Z,9.91
2022-12-28T10:14:50.834Z,9.78
2022-12-28T10:17:55.122Z,10.28
2022-12-28T10:20:58.969Z,10.87
2022-12-28T10:24:31.284Z,10.92
2022-12-28T10:27:31.423Z,10.53
2022-12-28T10:30:48.876Z,10.81
2022-12-28T10:33:52.928Z,11.94
2022-12-28T10:36:58.383Z,12.73
2022-12-28T10:40:03.811Z,13.63
2022-12-28T10:43:10.747Z,13.81
2022-12-28T10:46:18.080Z,13.43
2022-12-28T10:49:26.589Z,13.76
2022-12-28T10:52:29.497Z,12.69
2022-12-28T10:55:34.038Z,11.93
2022-12-28T10:58:36.999Z,11.40
2022-12-28T11:01:40.805Z,10.95
2022-12-28T11:04:55.059Z,11.19
2022-12-28T11:08:05.905Z,11.09
2022-12-28T11:11:18.287Z,11.50
2022-12-28T11:14:30.614Z,11.83
2022-12-28T11:17:37.701Z,12.75
2022-12-28T11:20:45.017Z,13.45
2022-12-28T11:23:49.304Z,14.51
2022-12-28T11:26:52.059Z,15.15
2022-12-28T11:29:55.713Z,15.67
2022-12-28T11:33:00.976Z,16.48
2022-12-28T11:36:10.015Z,15.54
2022-12-28T11:39:43.985Z,14.91
2022-12-28T11:42:54.898Z,13.99
2022-12-28T11:45:58.654Z,13.45
2022-12-28T11:49:03.689Z,14.09
2022-12-28T11:52:42.983Z,13.57
2022-12-28T11:55:58.942Z,13.88
2022-12-28T11:59:20.669Z,12.99
2022-12-28T12:02:41.103Z,14.23
2022-12-28T12:05:51.797Z,15.24
2022-12-28T12:08:54.535Z,15.59
2022-12-28T12:12:00.263Z,14.93
2022-12-28T12:15:10.905Z,15.02
2022-12-28T12:18:19.969Z,13.95
2022-12-28T12:21:30.432Z,14.62
2022-12-28T12:24:42.028Z,14.71
2022-12-28T12:27:52.091Z,14.06
2022-12-28T12:30:56.599Z,14.17
2022-12-28T12:34:19.065Z,13.27
2022-12-28T12:37:37.331Z,13.39
2022-12-28T12:40:59.349Z,12.43
2022-12-28T12:44:18.764Z,11.61
2022-12-28T12:47:59.002Z,10.97
2022-12-28T12:51:15.139Z,10.92
2022-12-28T12:54:31.944Z,10.97
2022-12-28T12:57:39.964Z,10.82
2022-12-28T13:00:53.666Z,10.82
2022-12-28T13:04:06.062Z,10.74
2022-12-28T13:07:17.830Z,10.44
2022-12-28T13:10:26.313Z,10.17
2022-12-28T13:13:32.897Z,10.03
2022-12-28T13:16:37.067Z,9.48
2022-12-28T13:19:39.683Z,9.58
2022-12-28T13:22:45.283Z,9.36
2022-12-28T13:25:51.643Z,9.37
2022-12-28T13:28:59.201Z,9.32
2022-12-28T13:32:24.953Z,9.33
2022-12-28T13:35:29.204Z,9.59
2022-12-28T13:38:31.869Z,9.39
2022-12-28T13:41:35.833Z,9.09
2022-12-28T13:44:43.351Z,8.87
2022-12-28T13:47:50.866Z,8.67
2022-12-28T13:50:53.817Z,8.34
2022-12-28T13:54:00.160Z,8.21
2022-12-28T13:57:36.374Z,8.14
2022-12-28T14:00:25.587Z,7.97
2022-12-28T14:03:35.900Z,7.92
2022-12-28T14:06:42.866Z,7.69
2022-12-28T14:09:47.323Z,7.52
2022-12-28T14:12:53.758Z,7.62
2022-12-28T14:15:58.588Z,7.49
2022-12-28T14:19:03.618Z,7.36
2022-12-28T14:22:28.217Z,7.14
2022-12-28T14:25:42.735Z,7.08
2022-12-28T14:28:48.463Z,7.02
2022-12-28T14:31:55.982Z,7.03
2022-12-28T14:35:01.184Z,6.88
2022-12-28T14:38:03.961Z,6.81
2022-12-28T14:41:07.407Z,6.74
2022-12-28T14:44:17.611Z,6.60
2022-12-28T14:47:37.197Z,6.52
2022-12-28T14:50:55.931Z,6.43
2022-12-28T14:54:19.418Z,6.29
2022-12-28T14:57:33.460Z,6.29
2022-12-28T15:00:37.074Z,6.05
2022-12-28T15:03:51.823Z,5.98
2022-12-28T15:06:55.948Z,5.78
2022-12-28T15:09:58.686Z,5.62
2022-12-28T15:13:01.369Z,5.64
2022-12-28T15:16:04.632Z,5.50
2022-12-28T15:19:07.485Z,5.63
2022-12-28T15:22:12.166Z,5.64
2022-12-28T15:25:15.148Z,5.41
2022-12-28T15:28:17.830Z,5.45
2022-12-28T15:31:21.654Z,5.28
2022-12-28T15:34:24.755Z,5.10
2022-12-28T15:37:28.962Z,5.11
2022-12-28T15:40:31.751Z,4.94
2022-12-28T15:43:34.819Z,4.80
2022-12-28T15:46:37.680Z,4.63
2022-12-28T15:49:40.366Z,4.62
2022-12-28T15:52:44.576Z,4.48
2022-12-28T15:55:58.615Z,4.33
2022-12-28T15:59:03.263Z,4.34
2022-12-28T16:02:06.608Z,4.41
2022-12-28T16:05:09.750Z,4.23
2022-12-28T16:08:13.875Z,4.19
2022-12-28T16:11:18.765Z,4.03
2022-12-28T16:14:22.719Z,3.97
2022-12-28T16:17:25.462Z,3.97
2022-12-28T16:20:29.750Z,3.85
2022-12-28T16:23:36.353Z,3.86
2022-12-28T16:26:39.010Z,3.74
2022-12-28T16:29:41.958Z,3.77
2022-12-28T16:32:46.440Z,3.66
2022-12-28T16:35:54.363Z,3.58
2022-12-28T16:39:02.994Z,3.59
2022-12-28T16:42:06.609Z,3.46
2022-12-28T16:45:09.889Z,3.39
2022-12-28T16:48:15.158Z,3.48
2022-12-28T16:51:17.784Z,3.43
2022-12-28T16:54:23.811Z,3.36
2022-12-28T16:57:26.562Z,3.34
2022-12-28T17:00:29.337Z,3.26
2022-12-28T17:03:32.034Z,3.20
2022-12-28T17:06:34.881Z,3.20
2022-12-28T17:09:42.974Z,3.06
2022-12-28T17:12:48.082Z,2.98
2022-12-28T17:15:50.785Z,2.97
2022-12-28T17:18:57.570Z,2.97
2022-12-28T17:22:00.527Z,2.88
2022-12-28T17:25:05.293Z,2.90
2022-12-28T17:28:08.043Z,2.84
2022-12-28T17:31:14.267Z,2.86
2022-12-28T17:34:16.880Z,2.73
2022-12-28T17:37:19.552Z,2.64
2022-12-28T17:40:23.666Z,2.68
2022-12-28T17:43:26.422Z,2.81
2022-12-28T17:46:30.452Z,2.69
2022-12-28T17:49:33.195Z,2.58
2022-12-28T17:52:36.048Z,2.68
2022-12-28T17:55:40.213Z,2.49
2022-12-28T17:58:44.770Z,2.51
2022-12-28T18:01:47.686Z,2.49
2022-12-28T18:04:50.464Z,2.45
2022-12-28T18:07:53.384Z,2.39
2022-12-28T18:10:57.510Z,2.23
2022-12-28T18:14:00.383Z,2.29
2022-12-28T18:17:03.662Z,2.25
2022-12-28T18:20:07.873Z,2.20
2022-12-28T18:23:11.351Z,2.26
2022-12-28T18:26:18.402Z,2.23
2022-12-28T18:29:21.390Z,2.29
2022-12-28T18:32:24.147Z,2.33
2022-12-28T18:35:27.258Z,2.42
2022-12-28T18:38:30.155Z,2.36
2022-12-28T18:41:34.621Z,2.26
2022-12-28T18:44:37.298Z,2.26
2022-12-28T18:47:40.300Z,2.35
2022-12-28T18:50:52.071Z,2.32
2022-12-28T18:53:54.857Z,2.22
2022-12-28T18:56:59.051Z,2.27
2022-12-28T19:00:02.084Z,2.16
2022-12-28T19:03:06.222Z,1.90
2022-12-28T19:06:09.704Z,1.83
2022-12-28T19:09:13.422Z,1.79
2022-12-28T19:12:17.470Z,1.68
2022-12-28T19:15:20.345Z,1.67
2022-12-28T19:18:23.200Z,1.50
2022-12-28T19:21:28.088Z,1.50
2022-12-28T19:24:30.727Z,1.63
2022-12-28T19:27:34.950Z,1.81
2022-12-28T19:30:37.799Z,1.88
2022-12-28T19:33:41.018Z,1.88
2022-12-28T19:36:43.920Z,2.06
2022-12-28T19:39:46.889Z,2.13
2022-12-28T19:42:50.853Z,2.20
2022-12-28T19:46:00.475Z,2.16
2022-12-28T19:49:04.602Z,2.18
2022-12-28T19:52:07.563Z,2.22
2022-12-28T19:55:10.449Z,2.17
2022-12-28T19:58:14.545Z,2.19
2022-12-28T20:01:19.589Z,2.10
2022-12-28T20:04:22.466Z,2.15
2022-12-28T20:07:25.414Z,2.20
2022-12-28T20:10:29.436Z,2.15
2022-12-28T20:13:34.309Z,2.03
2022-12-28T20:16:37.246Z,1.91
2022-12-28T20:19:39.992Z,1.86
2022-12-28T20:22:42.887Z,1.92
2022-12-28T20:25:50.683Z,1.82
2022-12-28T20:28:56.502Z,1.79
2022-12-28T20:31:59.371Z,1.68
2022-12-28T20:35:02.080Z,1.61
2022-12-28T20:38:04.744Z,1.48
2022-12-28T20:41:10.745Z,1.56
2022-12-28T20:44:17.622Z,1.51
2022-12-28T20:47:20.273Z,1.59
2022-12-28T20:50:23.028Z,1.72
2022-12-28T20:53:27.965Z,1.71
2022-12-28T20:56:30.776Z,1.56
2022-12-28T20:59:34.900Z,1.45
2022-12-28T21:02:37.595Z,1.43
2022-12-28T21:05:40.327Z,1.42
2022-12-28T21:08:43.162Z,1.47
2022-12-28T21:11:46.029Z,1.46
2022-12-28T21:14:50.057Z,1.56
2022-12-28T21:17:52.782Z,1.51
2022-12-28T21:20:57.340Z,1.37
2022-12-28T21:24:01.836Z,1.32
2022-12-28T21:27:05.600Z,1.31
2022-12-28T21:30:11.231Z,1.29
2022-12-28T21:33:14.077Z,1.13
2022-12-28T21:36:18.281Z,1.09
2022-12-28T21:39:21.178Z,1.09
2022-12-28T21:42:23.935Z,1.09
2022-12-28T21:45:28.074Z,0.95
2022-12-28T21:48:31.991Z,0.82
2022-12-28T21:51:38.642Z,0.79
2022-12-28T21:54:41.323Z,0.97
2022-12-28T21:57:44.070Z,1.05
2022-12-28T22:01:06.931Z,1.09
2022-12-28T22:04:30.302Z,1.07
2022-12-28T22:07:34.791Z,1.09
2022-12-28T22:10:56.508Z,1.06
2022-12-28T22:13:59.447Z,1.04
2022-12-28T22:17:03.636Z,1.01
2022-12-28T22:20:07.417Z,1.19
2022-12-28T22:23:10.358Z,1.10
2022-12-28T22:26:13.131Z,1.17
2022-12-28T22:29:16.511Z,1.19
2022-12-28T22:32:20.705Z,1.15
2022-12-28T22:35:23.975Z,1.10
2022-12-28T22:38:27.364Z,1.15
2022-12-28T22:41:30.083Z,1.18
2022-12-28T22:44:32.809Z,1.11
2022-12-28T22:47:36.915Z,0.88
2022-12-28T22:50:43.138Z,0.88
2022-12-28T22:53:50.019Z,0.88
2022-12-28T22:56:52.690Z,0.89
2022-12-28T22:59:55.608Z,0.92
2022-12-28T23:02:59.833Z,0.82
2022-12-28T23:06:02.585Z,0.82
2022-12-28T23:09:05.459Z,0.82
2022-12-28T23:12:08.287Z,0.91
2022-12-28T23:15:19.045Z,0.88
2022-12-28T23:18:42.275Z,0.80
2022-12-28T23:22:06.676Z,0.72
2022-12-28T23:25:30.673Z,0.81
2022-12-28T23:28:35.825Z,0.78
2022-12-28T23:31:38.627Z,0.65
2022-12-28T23:34:44.788Z,0.75
2022-12-28T23:37:47.654Z,0.72
2022-12-28T23:41:10.701Z,0.73
2022-12-28T23:44:13.457Z,0.75
2022-12-28T23:47:16.642Z,0.72
2022-12-28T23:50:20.782Z,0.73
2022-12-28T23:53:23.483Z,0.77
2022-12-28T23:56:26.123Z,0.71
2022-12-28T23:59:28.868Z,0.69
